sensor_id;sensor_type;location;lat;lon;timestamp;P1;durP1;ratioP1;P2;durP2;ratioP2
11151;SDS011;5630;49.342;10.802;2024-01-30T00:02:14;12.25;;;8.23;;
11151;SDS011;5630;49.342;10.802;2024-01-30T00:04:39;13.70;;;7.93;;
11151;SDS011;5630;49.342;10.802;2024-01-30T00:07:05;10.27;;;8.03;;
11151;SDS011;5630;49.342;10.802;2024-01-30T00:09:30;9.30;;;7.37;;
11151;SDS011;5630;49.342;10.802;2024-01-30T00:11:56;10.13;;;7.50;;
11151;SDS011;5630;49.342;10.802;2024-01-30T00:14:22;10.03;;;7.73;;
11151;SDS011;5630;49.342;10.802;2024-01-30T00:16:48;10.50;;;8.00;;
11151;SDS011;5630;49.342;10.802;2024-01-30T00:19:13;10.20;;;7.60;;
11151;SDS011;5630;49.342;10.802;2024-01-30T00:21:39;10.37;;;7.57;;
11151;SDS011;5630;49.342;10.802;2024-01-30T00:24:05;10.73;;;7.30;;
11151;SDS011;5630;49.342;10.802;2024-01-30T00:26:30;9.73;;;7.47;;
11151;SDS011;5630;49.342;10.802;2024-01-30T00:28:56;9.47;;;8.00;;
11151;SDS011;5630;49.342;10.802;2024-01-30T00:31:21;11.03;;;7.77;;
11151;SDS011;5630;49.342;10.802;2024-01-30T00:33:47;8.47;;;7.53;;
11151;SDS011;5630;49.342;10.802;2024-01-30T00:36:12;9.33;;;7.10;;
11151;SDS011;5630;49.342;10.802;2024-01-30T00:38:38;9.97;;;7.33;;
11151;SDS011;5630;49.342;10.802;2024-01-30T00:41:05;10.73;;;8.32;;
11151;SDS011;5630;49.342;10.802;2024-01-30T00:43:33;12.93;;;7.78;;
11151;SDS011;5630;49.342;10.802;2024-01-30T00:45:59;9.87;;;7.90;;
11151;SDS011;5630;49.342;10.802;2024-01-30T00:48:24;11.38;;;7.43;;
11151;SDS011;5630;49.342;10.802;2024-01-30T00:50:50;10.03;;;7.33;;
11151;SDS011;5630;49.342;10.802;2024-01-30T00:53:15;10.87;;;7.63;;
11151;SDS011;5630;49.342;10.802;2024-01-30T00:55:41;11.10;;;7.83;;
11151;SDS011;5630;49.342;10.802;2024-01-30T00:58:07;11.80;;;7.97;;
11151;SDS011;5630;49.342;10.802;2024-01-30T01:00:32;10.73;;;7.60;;
11151;SDS011;5630;49.342;10.802;2024-01-30T01:02:58;11.27;;;8.20;;
11151;SDS011;5630;49.342;10.802;2024-01-30T01:05:24;11.87;;;7.73;;
11151;SDS011;5630;49.342;10.802;2024-01-30T01:07:50;11.02;;;7.53;;
11151;SDS011;5630;49.342;10.802;2024-01-30T01:10:16;10.10;;;7.47;;
11151;SDS011;5630;49.342;10.802;2024-01-30T01:12:43;10.55;;;7.18;;
11151;SDS011;5630;49.342;10.802;2024-01-30T01:15:09;11.17;;;7.60;;
11151;SDS011;5630;49.342;10.802;2024-01-30T01:17:35;9.67;;;7.37;;
11151;SDS011;5630;49.342;10.802;2024-01-30T01:20:01;13.02;;;7.70;;
11151;SDS011;5630;49.342;10.802;2024-01-30T01:22:28;13.57;;;7.93;;
11151;SDS011;5630;49.342;10.802;2024-01-30T01:24:54;10.30;;;7.23;;
11151;SDS011;5630;49.342;10.802;2024-01-30T01:27:19;11.87;;;7.80;;
11151;SDS011;5630;49.342;10.802;2024-01-30T01:29:46;11.10;;;7.80;;
11151;SDS011;5630;49.342;10.802;2024-01-30T01:32:11;8.83;;;7.37;;
11151;SDS011;5630;49.342;10.802;2024-01-30T01:34:37;10.23;;;7.67;;
11151;SDS011;5630;49.342;10.802;2024-01-30T01:37:02;10.40;;;7.90;;
11151;SDS011;5630;49.342;10.802;2024-01-30T01:39:28;9.97;;;8.03;;
11151;SDS011;5630;49.342;10.802;2024-01-30T01:41:53;11.17;;;7.30;;
11151;SDS011;5630;49.342;10.802;2024-01-30T01:44:19;11.33;;;7.53;;
11151;SDS011;5630;49.342;10.802;2024-01-30T01:46:44;9.63;;;7.17;;
11151;SDS011;5630;49.342;10.802;2024-01-30T01:49:10;12.83;;;7.70;;
11151;SDS011;5630;49.342;10.802;2024-01-30T01:51:36;10.25;;;7.35;;
11151;SDS011;5630;49.342;10.802;2024-01-30T01:54:04;10.95;;;7.47;;
11151;SDS011;5630;49.342;10.802;2024-01-30T01:56:30;10.93;;;7.20;;
11151;SDS011;5630;49.342;10.802;2024-01-30T01:58:59;12.55;;;7.35;;
11151;SDS011;5630;49.342;10.802;2024-01-30T02:01:29;10.73;;;7.35;;
11151;SDS011;5630;49.342;10.802;2024-01-30T02:03:56;9.18;;;7.53;;
11151;SDS011;5630;49.342;10.802;2024-01-30T02:06:21;9.43;;;7.53;;
11151;SDS011;5630;49.342;10.802;2024-01-30T02:08:48;11.13;;;7.78;;
11151;SDS011;5630;49.342;10.802;2024-01-30T02:11:14;11.77;;;8.23;;
11151;SDS011;5630;49.342;10.802;2024-01-30T02:13:41;11.23;;;7.97;;
11151;SDS011;5630;49.342;10.802;2024-01-30T02:16:07;10.20;;;7.93;;
11151;SDS011;5630;49.342;10.802;2024-01-30T02:18:33;8.73;;;7.73;;
11151;SDS011;5630;49.342;10.802;2024-01-30T02:20:58;12.17;;;8.00;;
11151;SDS011;5630;49.342;10.802;2024-01-30T02:23:28;11.20;;;7.70;;
11151;SDS011;5630;49.342;10.802;2024-01-30T02:25:56;8.55;;;7.00;;
11151;SDS011;5630;49.342;10.802;2024-01-30T02:28:21;12.23;;;8.00;;
11151;SDS011;5630;49.342;10.802;2024-01-30T02:30:47;12.13;;;7.33;;
11151;SDS011;5630;49.342;10.802;2024-01-30T02:33:13;12.43;;;8.10;;
11151;SDS011;5630;49.342;10.802;2024-01-30T02:35:38;10.90;;;7.10;;
11151;SDS011;5630;49.342;10.802;2024-01-30T02:38:04;11.37;;;7.53;;
11151;SDS011;5630;49.342;10.802;2024-01-30T02:40:30;11.40;;;8.03;;
11151;SDS011;5630;49.342;10.802;2024-01-30T02:42:57;9.43;;;7.57;;
11151;SDS011;5630;49.342;10.802;2024-01-30T02:45:24;11.95;;;7.50;;
11151;SDS011;5630;49.342;10.802;2024-01-30T02:47:49;9.07;;;7.33;;
11151;SDS011;5630;49.342;10.802;2024-01-30T02:50:15;12.57;;;7.40;;
11151;SDS011;5630;49.342;10.802;2024-01-30T02:52:41;10.95;;;7.65;;
11151;SDS011;5630;49.342;10.802;2024-01-30T02:55:08;11.75;;;8.35;;
11151;SDS011;5630;49.342;10.802;2024-01-30T02:57:34;10.97;;;7.87;;
11151;SDS011;5630;49.342;10.802;2024-01-30T03:00:00;10.43;;;7.90;;
11151;SDS011;5630;49.342;10.802;2024-01-30T03:02:26;9.77;;;7.70;;
11151;SDS011;5630;49.342;10.802;2024-01-30T03:04:51;9.17;;;8.00;;
11151;SDS011;5630;49.342;10.802;2024-01-30T03:07:17;9.50;;;7.73;;
11151;SDS011;5630;49.342;10.802;2024-01-30T03:09:42;9.57;;;7.83;;
11151;SDS011;5630;49.342;10.802;2024-01-30T03:12:08;10.63;;;8.03;;
11151;SDS011;5630;49.342;10.802;2024-01-30T03:14:34;11.57;;;7.60;;
11151;SDS011;5630;49.342;10.802;2024-01-30T03:17:00;9.17;;;7.67;;
11151;SDS011;5630;49.342;10.802;2024-01-30T03:19:25;11.67;;;8.40;;
11151;SDS011;5630;49.342;10.802;2024-01-30T03:21:51;10.03;;;7.37;;
11151;SDS011;5630;49.342;10.802;2024-01-30T03:24:16;11.23;;;8.03;;
11151;SDS011;5630;49.342;10.802;2024-01-30T03:26:42;11.30;;;7.93;;
11151;SDS011;5630;49.342;10.802;2024-01-30T03:29:08;10.30;;;8.40;;
11151;SDS011;5630;49.342;10.802;2024-01-30T03:31:34;10.13;;;7.80;;
11151;SDS011;5630;49.342;10.802;2024-01-30T03:34:00;10.33;;;8.30;;
11151;SDS011;5630;49.342;10.802;2024-01-30T03:36:26;13.38;;;7.75;;
11151;SDS011;5630;49.342;10.802;2024-01-30T03:38:52;13.47;;;8.30;;
11151;SDS011;5630;49.342;10.802;2024-01-30T03:41:17;13.43;;;8.33;;
11151;SDS011;5630;49.342;10.802;2024-01-30T03:43:43;9.60;;;7.87;;
11151;SDS011;5630;49.342;10.802;2024-01-30T03:46:08;13.23;;;8.10;;
11151;SDS011;5630;49.342;10.802;2024-01-30T03:48:34;12.37;;;8.40;;
11151;SDS011;5630;49.342;10.802;2024-01-30T03:50:59;11.37;;;7.93;;
11151;SDS011;5630;49.342;10.802;2024-01-30T03:53:25;11.17;;;7.97;;
11151;SDS011;5630;49.342;10.802;2024-01-30T03:55:51;10.60;;;7.70;;
11151;SDS011;5630;49.342;10.802;2024-01-30T03:58:16;11.33;;;8.57;;
11151;SDS011;5630;49.342;10.802;2024-01-30T04:00:42;12.57;;;8.70;;
11151;SDS011;5630;49.342;10.802;2024-01-30T04:03:07;10.40;;;8.60;;
11151;SDS011;5630;49.342;10.802;2024-01-30T04:05:33;11.43;;;8.70;;
11151;SDS011;5630;49.342;10.802;2024-01-30T04:07:58;14.03;;;8.97;;
11151;SDS011;5630;49.342;10.802;2024-01-30T04:10:24;12.73;;;8.33;;
11151;SDS011;5630;49.342;10.802;2024-01-30T04:12:50;14.23;;;8.33;;
11151;SDS011;5630;49.342;10.802;2024-01-30T04:15:16;11.65;;;8.65;;
11151;SDS011;5630;49.342;10.802;2024-01-30T04:17:42;12.32;;;8.93;;
11151;SDS011;5630;49.342;10.802;2024-01-30T04:20:12;10.77;;;9.10;;
11151;SDS011;5630;49.342;10.802;2024-01-30T04:22:39;12.83;;;9.63;;
11151;SDS011;5630;49.342;10.802;2024-01-30T04:25:05;11.20;;;9.13;;
11151;SDS011;5630;49.342;10.802;2024-01-30T04:27:31;12.80;;;9.77;;
11151;SDS011;5630;49.342;10.802;2024-01-30T04:29:56;13.80;;;9.53;;
11151;SDS011;5630;49.342;10.802;2024-01-30T04:32:22;13.53;;;9.67;;
11151;SDS011;5630;49.342;10.802;2024-01-30T04:34:47;12.33;;;10.20;;
11151;SDS011;5630;49.342;10.802;2024-01-30T04:37:13;13.67;;;9.87;;
11151;SDS011;5630;49.342;10.802;2024-01-30T04:39:38;12.43;;;10.13;;
11151;SDS011;5630;49.342;10.802;2024-01-30T04:42:04;13.23;;;10.37;;
11151;SDS011;5630;49.342;10.802;2024-01-30T04:44:30;14.33;;;9.67;;
11151;SDS011;5630;49.342;10.802;2024-01-30T04:46:55;14.37;;;10.53;;
11151;SDS011;5630;49.342;10.802;2024-01-30T04:49:24;12.88;;;10.02;;
11151;SDS011;5630;49.342;10.802;2024-01-30T04:51:49;14.10;;;9.70;;
11151;SDS011;5630;49.342;10.802;2024-01-30T04:54:15;13.17;;;10.27;;
11151;SDS011;5630;49.342;10.802;2024-01-30T04:56:40;14.27;;;10.87;;
11151;SDS011;5630;49.342;10.802;2024-01-30T04:59:06;13.47;;;10.03;;
11151;SDS011;5630;49.342;10.802;2024-01-30T05:01:33;14.80;;;10.38;;
11151;SDS011;5630;49.342;10.802;2024-01-30T05:03:59;12.07;;;10.17;;
11151;SDS011;5630;49.342;10.802;2024-01-30T05:06:28;13.10;;;10.90;;
11151;SDS011;5630;49.342;10.802;2024-01-30T05:08:53;15.88;;;11.15;;
11151;SDS011;5630;49.342;10.802;2024-01-30T05:11:19;15.07;;;10.93;;
11151;SDS011;5630;49.342;10.802;2024-01-30T05:13:44;17.37;;;11.67;;
11151;SDS011;5630;49.342;10.802;2024-01-30T05:16:10;15.07;;;10.40;;
11151;SDS011;5630;49.342;10.802;2024-01-30T05:18:36;13.37;;;11.27;;
11151;SDS011;5630;49.342;10.802;2024-01-30T05:21:02;14.70;;;10.80;;
11151;SDS011;5630;49.342;10.802;2024-01-30T05:23:28;15.57;;;11.37;;
11151;SDS011;5630;49.342;10.802;2024-01-30T05:25:54;14.20;;;11.23;;
11151;SDS011;5630;49.342;10.802;2024-01-30T05:28:19;15.50;;;10.80;;
11151;SDS011;5630;49.342;10.802;2024-01-30T05:30:45;14.60;;;10.97;;
11151;SDS011;5630;49.342;10.802;2024-01-30T05:33:10;17.33;;;11.13;;
11151;SDS011;5630;49.342;10.802;2024-01-30T05:35:37;14.60;;;11.52;;
11151;SDS011;5630;49.342;10.802;2024-01-30T05:38:02;14.60;;;11.30;;
11151;SDS011;5630;49.342;10.802;2024-01-30T05:40:28;16.23;;;11.27;;
11151;SDS011;5630;49.342;10.802;2024-01-30T05:42:54;13.80;;;10.67;;
11151;SDS011;5630;49.342;10.802;2024-01-30T05:45:19;16.33;;;11.23;;
11151;SDS011;5630;49.342;10.802;2024-01-30T05:47:45;17.53;;;12.00;;
11151;SDS011;5630;49.342;10.802;2024-01-30T05:50:10;15.07;;;11.50;;
11151;SDS011;5630;49.342;10.802;2024-01-30T05:52:36;17.77;;;12.00;;
11151;SDS011;5630;49.342;10.802;2024-01-30T05:55:02;19.20;;;12.03;;
11151;SDS011;5630;49.342;10.802;2024-01-30T05:57:28;17.37;;;12.40;;
11151;SDS011;5630;49.342;10.802;2024-01-30T05:59:53;16.77;;;12.70;;
11151;SDS011;5630;49.342;10.802;2024-01-30T06:02:19;16.80;;;12.43;;
11151;SDS011;5630;49.342;10.802;2024-01-30T06:04:44;14.17;;;11.83;;
11151;SDS011;5630;49.342;10.802;2024-01-30T06:07:10;15.50;;;12.17;;
11151;SDS011;5630;49.342;10.802;2024-01-30T06:09:35;15.33;;;12.23;;
11151;SDS011;5630;49.342;10.802;2024-01-30T06:12:01;16.57;;;13.17;;
11151;SDS011;5630;49.342;10.802;2024-01-30T06:14:27;18.80;;;13.10;;
11151;SDS011;5630;49.342;10.802;2024-01-30T06:16:52;17.90;;;12.80;;
11151;SDS011;5630;49.342;10.802;2024-01-30T06:19:18;18.23;;;12.80;;
11151;SDS011;5630;49.342;10.802;2024-01-30T06:21:44;18.43;;;13.00;;
11151;SDS011;5630;49.342;10.802;2024-01-30T06:24:10;17.17;;;12.80;;
11151;SDS011;5630;49.342;10.802;2024-01-30T06:26:36;18.67;;;12.00;;
11151;SDS011;5630;49.342;10.802;2024-01-30T06:29:01;16.77;;;12.23;;
11151;SDS011;5630;49.342;10.802;2024-01-30T06:31:27;14.43;;;11.80;;
11151;SDS011;5630;49.342;10.802;2024-01-30T06:33:53;14.53;;;12.03;;
11151;SDS011;5630;49.342;10.802;2024-01-30T06:36:18;15.63;;;11.90;;
11151;SDS011;5630;49.342;10.802;2024-01-30T06:38:44;15.20;;;12.13;;
11151;SDS011;5630;49.342;10.802;2024-01-30T06:41:09;17.40;;;12.20;;
11151;SDS011;5630;49.342;10.802;2024-01-30T06:43:35;15.90;;;11.63;;
11151;SDS011;5630;49.342;10.802;2024-01-30T06:46:00;15.03;;;11.73;;
11151;SDS011;5630;49.342;10.802;2024-01-30T06:48:26;16.60;;;12.37;;
11151;SDS011;5630;49.342;10.802;2024-01-30T06:50:54;17.67;;;12.30;;
11151;SDS011;5630;49.342;10.802;2024-01-30T06:53:23;16.80;;;12.93;;
11151;SDS011;5630;49.342;10.802;2024-01-30T06:55:48;16.77;;;13.33;;
11151;SDS011;5630;49.342;10.802;2024-01-30T06:58:14;17.37;;;12.50;;
11151;SDS011;5630;49.342;10.802;2024-01-30T07:00:39;18.90;;;12.47;;
11151;SDS011;5630;49.342;10.802;2024-01-30T07:03:05;13.87;;;11.07;;
11151;SDS011;5630;49.342;10.802;2024-01-30T07:05:31;14.73;;;11.23;;
11151;SDS011;5630;49.342;10.802;2024-01-30T07:07:57;16.33;;;11.07;;
11151;SDS011;5630;49.342;10.802;2024-01-30T07:10:22;14.97;;;11.87;;
11151;SDS011;5630;49.342;10.802;2024-01-30T07:12:48;16.10;;;12.47;;
11151;SDS011;5630;49.342;10.802;2024-01-30T07:15:13;19.23;;;12.93;;
11151;SDS011;5630;49.342;10.802;2024-01-30T07:17:42;17.53;;;12.13;;
11151;SDS011;5630;49.342;10.802;2024-01-30T07:20:07;16.90;;;12.57;;
11151;SDS011;5630;49.342;10.802;2024-01-30T07:22:34;15.20;;;11.93;;
11151;SDS011;5630;49.342;10.802;2024-01-30T07:25:00;19.87;;;13.13;;
11151;SDS011;5630;49.342;10.802;2024-01-30T07:27:25;18.10;;;13.37;;
11151;SDS011;5630;49.342;10.802;2024-01-30T07:29:51;17.70;;;13.70;;
11151;SDS011;5630;49.342;10.802;2024-01-30T07:32:16;18.97;;;14.10;;
11151;SDS011;5630;49.342;10.802;2024-01-30T07:34:43;16.83;;;13.40;;
11151;SDS011;5630;49.342;10.802;2024-01-30T07:37:09;10.47;;;8.27;;
11151;SDS011;5630;49.342;10.802;2024-01-30T07:39:35;12.70;;;9.53;;
11151;SDS011;5630;49.342;10.802;2024-01-30T07:42:01;13.00;;;9.50;;
11151;SDS011;5630;49.342;10.802;2024-01-30T07:44:27;17.03;;;8.93;;
11151;SDS011;5630;49.342;10.802;2024-01-30T07:46:53;10.63;;;8.77;;
11151;SDS011;5630;49.342;10.802;2024-01-30T07:49:19;12.43;;;10.50;;
11151;SDS011;5630;49.342;10.802;2024-01-30T07:51:45;13.73;;;10.93;;
11151;SDS011;5630;49.342;10.802;2024-01-30T07:54:11;14.43;;;10.53;;
11151;SDS011;5630;49.342;10.802;2024-01-30T07:56:39;17.33;;;11.53;;
11151;SDS011;5630;49.342;10.802;2024-01-30T07:59:05;14.60;;;11.10;;
11151;SDS011;5630;49.342;10.802;2024-01-30T08:01:31;13.03;;;11.43;;
11151;SDS011;5630;49.342;10.802;2024-01-30T08:03:56;20.90;;;15.43;;
11151;SDS011;5630;49.342;10.802;2024-01-30T08:06:22;17.87;;;14.00;;
11151;SDS011;5630;49.342;10.802;2024-01-30T08:08:47;17.97;;;13.97;;
11151;SDS011;5630;49.342;10.802;2024-01-30T08:11:13;19.23;;;14.67;;
11151;SDS011;5630;49.342;10.802;2024-01-30T08:13:38;18.73;;;12.97;;
11151;SDS011;5630;49.342;10.802;2024-01-30T08:16:04;17.70;;;11.63;;
11151;SDS011;5630;49.342;10.802;2024-01-30T08:18:30;15.07;;;12.23;;
11151;SDS011;5630;49.342;10.802;2024-01-30T08:20:55;17.53;;;12.10;;
11151;SDS011;5630;49.342;10.802;2024-01-30T08:23:21;17.20;;;12.50;;
11151;SDS011;5630;49.342;10.802;2024-01-30T08:25:46;17.03;;;12.20;;
11151;SDS011;5630;49.342;10.802;2024-01-30T08:28:12;15.80;;;12.27;;
11151;SDS011;5630;49.342;10.802;2024-01-30T08:30:37;15.90;;;11.87;;
11151;SDS011;5630;49.342;10.802;2024-01-30T08:33:04;15.70;;;12.23;;
11151;SDS011;5630;49.342;10.802;2024-01-30T08:35:30;10.77;;;7.70;;
11151;SDS011;5630;49.342;10.802;2024-01-30T08:37:58;12.43;;;8.90;;
11151;SDS011;5630;49.342;10.802;2024-01-30T08:40:24;12.40;;;8.57;;
11151;SDS011;5630;49.342;10.802;2024-01-30T08:42:49;14.13;;;8.40;;
11151;SDS011;5630;49.342;10.802;2024-01-30T08:45:15;13.07;;;7.60;;
11151;SDS011;5630;49.342;10.802;2024-01-30T08:47:41;11.83;;;8.17;;
11151;SDS011;5630;49.342;10.802;2024-01-30T08:50:07;13.10;;;10.40;;
11151;SDS011;5630;49.342;10.802;2024-01-30T08:52:32;12.90;;;10.73;;
11151;SDS011;5630;49.342;10.802;2024-01-30T08:54:59;15.77;;;11.20;;
11151;SDS011;5630;49.342;10.802;2024-01-30T08:57:25;13.93;;;10.67;;
11151;SDS011;5630;49.342;10.802;2024-01-30T08:59:53;12.60;;;9.90;;
11151;SDS011;5630;49.342;10.802;2024-01-30T09:02:19;13.67;;;10.63;;
11151;SDS011;5630;49.342;10.802;2024-01-30T09:04:45;13.77;;;10.57;;
11151;SDS011;5630;49.342;10.802;2024-01-30T09:07:10;15.80;;;11.17;;
11151;SDS011;5630;49.342;10.802;2024-01-30T09:09:37;14.80;;;11.30;;
11151;SDS011;5630;49.342;10.802;2024-01-30T09:12:04;16.13;;;11.63;;
11151;SDS011;5630;49.342;10.802;2024-01-30T09:14:33;13.73;;;11.07;;
11151;SDS011;5630;49.342;10.802;2024-01-30T09:16:59;15.37;;;10.83;;
11151;SDS011;5630;49.342;10.802;2024-01-30T09:19:24;14.30;;;11.70;;
11151;SDS011;5630;49.342;10.802;2024-01-30T09:21:50;14.40;;;11.00;;
11151;SDS011;5630;49.342;10.802;2024-01-30T09:24:15;12.47;;;10.60;;
11151;SDS011;5630;49.342;10.802;2024-01-30T09:26:41;13.77;;;10.80;;
11151;SDS011;5630;49.342;10.802;2024-01-30T09:29:06;13.43;;;11.23;;
11151;SDS011;5630;49.342;10.802;2024-01-30T09:31:32;13.20;;;10.97;;
11151;SDS011;5630;49.342;10.802;2024-01-30T09:33:57;15.43;;;11.43;;
11151;SDS011;5630;49.342;10.802;2024-01-30T09:36:23;14.20;;;11.47;;
11151;SDS011;5630;49.342;10.802;2024-01-30T09:38:49;15.13;;;11.37;;
11151;SDS011;5630;49.342;10.802;2024-01-30T09:41:14;18.27;;;12.03;;
11151;SDS011;5630;49.342;10.802;2024-01-30T09:43:41;15.57;;;11.13;;
11151;SDS011;5630;49.342;10.802;2024-01-30T09:46:13;15.43;;;11.77;;
11151;SDS011;5630;49.342;10.802;2024-01-30T09:48:41;15.80;;;12.20;;
11151;SDS011;5630;49.342;10.802;2024-01-30T09:51:08;15.17;;;11.60;;
11151;SDS011;5630;49.342;10.802;2024-01-30T09:53:34;15.37;;;11.63;;
11151;SDS011;5630;49.342;10.802;2024-01-30T09:56:02;13.90;;;11.80;;
11151;SDS011;5630;49.342;10.802;2024-01-30T09:58:28;13.97;;;11.23;;
11151;SDS011;5630;49.342;10.802;2024-01-30T10:00:53;15.07;;;10.30;;
11151;SDS011;5630;49.342;10.802;2024-01-30T10:03:19;16.83;;;11.53;;
11151;SDS011;5630;49.342;10.802;2024-01-30T10:05:48;16.70;;;11.40;;
11151;SDS011;5630;49.342;10.802;2024-01-30T10:08:19;16.80;;;10.97;;
11151;SDS011;5630;49.342;10.802;2024-01-30T10:10:47;14.73;;;11.37;;
11151;SDS011;5630;49.342;10.802;2024-01-30T10:13:14;13.50;;;10.57;;
11151;SDS011;5630;49.342;10.802;2024-01-30T10:15:41;16.97;;;10.83;;
11151;SDS011;5630;49.342;10.802;2024-01-30T10:18:06;16.50;;;10.57;;
11151;SDS011;5630;49.342;10.802;2024-01-30T10:20:34;15.53;;;10.97;;
11151;SDS011;5630;49.342;10.802;2024-01-30T10:23:01;16.00;;;10.50;;
11151;SDS011;5630;49.342;10.802;2024-01-30T10:25:28;18.63;;;11.60;;
11151;SDS011;5630;49.342;10.802;2024-01-30T10:27:54;17.10;;;12.37;;
11151;SDS011;5630;49.342;10.802;2024-01-30T10:30:20;23.83;;;11.87;;
11151;SDS011;5630;49.342;10.802;2024-01-30T10:32:46;21.00;;;11.47;;
11151;SDS011;5630;49.342;10.802;2024-01-30T10:35:12;16.07;;;11.00;;
11151;SDS011;5630;49.342;10.802;2024-01-30T10:37:38;17.67;;;11.43;;
11151;SDS011;5630;49.342;10.802;2024-01-30T10:40:04;15.33;;;10.47;;
11151;SDS011;5630;49.342;10.802;2024-01-30T10:42:31;17.20;;;10.43;;
11151;SDS011;5630;49.342;10.802;2024-01-30T10:45:10;14.80;;;10.23;;
11151;SDS011;5630;49.342;10.802;2024-01-30T10:47:39;16.23;;;9.97;;
11151;SDS011;5630;49.342;10.802;2024-01-30T10:50:07;18.23;;;10.70;;
11151;SDS011;5630;49.342;10.802;2024-01-30T10:52:34;19.23;;;10.60;;
11151;SDS011;5630;49.342;10.802;2024-01-30T10:55:00;18.57;;;10.73;;
11151;SDS011;5630;49.342;10.802;2024-01-30T10:57:26;22.33;;;11.17;;
11151;SDS011;5630;49.342;10.802;2024-01-30T10:59:52;13.70;;;10.03;;
11151;SDS011;5630;49.342;10.802;2024-01-30T11:02:21;15.33;;;10.10;;
11151;SDS011;5630;49.342;10.802;2024-01-30T11:04:49;16.17;;;9.83;;
11151;SDS011;5630;49.342;10.802;2024-01-30T11:07:18;15.20;;;9.90;;
11151;SDS011;5630;49.342;10.802;2024-01-30T11:09:52;12.73;;;10.03;;
11151;SDS011;5630;49.342;10.802;2024-01-30T11:12:22;11.90;;;8.97;;
11151;SDS011;5630;49.342;10.802;2024-01-30T11:14:48;15.00;;;9.20;;
11151;SDS011;5630;49.342;10.802;2024-01-30T11:17:15;13.17;;;9.23;;
11151;SDS011;5630;49.342;10.802;2024-01-30T11:19:41;13.83;;;9.37;;
11151;SDS011;5630;49.342;10.802;2024-01-30T11:22:07;14.00;;;8.77;;
11151;SDS011;5630;49.342;10.802;2024-01-30T11:24:39;16.60;;;9.47;;
11151;SDS011;5630;49.342;10.802;2024-01-30T11:27:08;12.37;;;9.37;;
11151;SDS011;5630;49.342;10.802;2024-01-30T11:29:35;23.00;;;9.83;;
11151;SDS011;5630;49.342;10.802;2024-01-30T11:32:01;26.93;;;10.27;;
11151;SDS011;5630;49.342;10.802;2024-01-30T11:34:27;13.63;;;9.97;;
11151;SDS011;5630;49.342;10.802;2024-01-30T11:36:56;13.93;;;9.37;;
11151;SDS011;5630;49.342;10.802;2024-01-30T11:39:24;15.70;;;9.10;;
11151;SDS011;5630;49.342;10.802;2024-01-30T11:41:51;13.60;;;9.37;;
11151;SDS011;5630;49.342;10.802;2024-01-30T11:44:18;13.57;;;9.47;;
11151;SDS011;5630;49.342;10.802;2024-01-30T11:46:48;19.83;;;10.23;;
11151;SDS011;5630;49.342;10.802;2024-01-30T11:49:14;14.63;;;9.07;;
11151;SDS011;5630;49.342;10.802;2024-01-30T11:51:40;22.27;;;10.00;;
11151;SDS011;5630;49.342;10.802;2024-01-30T11:54:07;13.63;;;8.70;;
11151;SDS011;5630;49.342;10.802;2024-01-30T11:56:32;13.77;;;9.20;;
11151;SDS011;5630;49.342;10.802;2024-01-30T11:58:58;16.10;;;8.67;;
11151;SDS011;5630;49.342;10.802;2024-01-30T12:01:25;19.90;;;9.33;;
11151;SDS011;5630;49.342;10.802;2024-01-30T12:03:51;13.40;;;9.00;;
11151;SDS011;5630;49.342;10.802;2024-01-30T12:06:17;16.37;;;8.50;;
11151;SDS011;5630;49.342;10.802;2024-01-30T12:08:42;12.30;;;8.77;;
11151;SDS011;5630;49.342;10.802;2024-01-30T12:11:18;14.00;;;9.33;;
11151;SDS011;5630;49.342;10.802;2024-01-30T12:13:44;11.57;;;8.80;;
11151;SDS011;5630;49.342;10.802;2024-01-30T12:16:10;13.47;;;8.67;;
11151;SDS011;5630;49.342;10.802;2024-01-30T12:18:35;12.40;;;8.87;;
11151;SDS011;5630;49.342;10.802;2024-01-30T12:21:01;13.63;;;8.30;;
11151;SDS011;5630;49.342;10.802;2024-01-30T12:23:27;14.63;;;8.37;;
11151;SDS011;5630;49.342;10.802;2024-01-30T12:25:53;15.23;;;9.40;;
11151;SDS011;5630;49.342;10.802;2024-01-30T12:28:19;15.03;;;9.50;;
11151;SDS011;5630;49.342;10.802;2024-01-30T12:30:45;17.77;;;10.13;;
11151;SDS011;5630;49.342;10.802;2024-01-30T12:33:17;19.63;;;9.13;;
11151;SDS011;5630;49.342;10.802;2024-01-30T12:35:46;17.83;;;9.23;;
11151;SDS011;5630;49.342;10.802;2024-01-30T12:38:16;12.70;;;8.80;;
11151;SDS011;5630;49.342;10.802;2024-01-30T12:40:41;10.23;;;8.03;;
11151;SDS011;5630;49.342;10.802;2024-01-30T12:43:07;12.33;;;8.63;;
11151;SDS011;5630;49.342;10.802;2024-01-30T12:45:33;12.37;;;8.30;;
11151;SDS011;5630;49.342;10.802;2024-01-30T12:47:58;14.43;;;8.13;;
11151;SDS011;5630;49.342;10.802;2024-01-30T12:50:24;14.07;;;8.53;;
11151;SDS011;5630;49.342;10.802;2024-01-30T12:52:49;20.23;;;8.20;;
11151;SDS011;5630;49.342;10.802;2024-01-30T12:55:15;11.93;;;7.50;;
11151;SDS011;5630;49.342;10.802;2024-01-30T12:57:41;13.87;;;7.80;;
11151;SDS011;5630;49.342;10.802;2024-01-30T13:00:07;13.93;;;7.77;;
11151;SDS011;5630;49.342;10.802;2024-01-30T13:02:34;8.93;;;7.30;;
11151;SDS011;5630;49.342;10.802;2024-01-30T13:05:02;12.70;;;7.43;;
11151;SDS011;5630;49.342;10.802;2024-01-30T13:07:28;11.63;;;7.40;;
11151;SDS011;5630;49.342;10.802;2024-01-30T13:09:54;21.60;;;8.03;;
11151;SDS011;5630;49.342;10.802;2024-01-30T13:12:19;15.37;;;7.10;;
11151;SDS011;5630;49.342;10.802;2024-01-30T13:14:45;21.07;;;7.80;;
11151;SDS011;5630;49.342;10.802;2024-01-30T13:17:10;15.47;;;8.10;;
11151;SDS011;5630;49.342;10.802;2024-01-30T13:19:36;11.57;;;7.57;;
11151;SDS011;5630;49.342;10.802;2024-01-30T13:22:02;11.27;;;6.90;;
11151;SDS011;5630;49.342;10.802;2024-01-30T13:24:27;13.47;;;7.70;;
11151;SDS011;5630;49.342;10.802;2024-01-30T13:26:53;12.77;;;7.33;;
11151;SDS011;5630;49.342;10.802;2024-01-30T13:29:18;12.70;;;7.90;;
11151;SDS011;5630;49.342;10.802;2024-01-30T13:31:44;18.10;;;7.87;;
11151;SDS011;5630;49.342;10.802;2024-01-30T13:34:11;15.77;;;8.00;;
11151;SDS011;5630;49.342;10.802;2024-01-30T13:36:38;12.80;;;7.40;;
11151;SDS011;5630;49.342;10.802;2024-01-30T13:39:04;12.00;;;7.97;;
11151;SDS011;5630;49.342;10.802;2024-01-30T13:41:33;15.77;;;7.60;;
11151;SDS011;5630;49.342;10.802;2024-01-30T13:43:58;11.70;;;7.50;;
11151;SDS011;5630;49.342;10.802;2024-01-30T13:46:24;14.00;;;7.40;;
11151;SDS011;5630;49.342;10.802;2024-01-30T13:48:50;14.87;;;7.73;;
11151;SDS011;5630;49.342;10.802;2024-01-30T13:51:17;6.83;;;4.20;;
11151;SDS011;5630;49.342;10.802;2024-01-30T13:53:43;8.87;;;5.63;;
11151;SDS011;5630;49.342;10.802;2024-01-30T13:56:08;10.27;;;6.27;;
11151;SDS011;5630;49.342;10.802;2024-01-30T13:58:34;12.47;;;7.00;;
11151;SDS011;5630;49.342;10.802;2024-01-30T14:01:01;10.33;;;6.83;;
11151;SDS011;5630;49.342;10.802;2024-01-30T14:03:27;10.17;;;6.90;;
11151;SDS011;5630;49.342;10.802;2024-01-30T14:05:52;13.50;;;7.60;;
11151;SDS011;5630;49.342;10.802;2024-01-30T14:08:18;14.03;;;7.07;;
11151;SDS011;5630;49.342;10.802;2024-01-30T14:10:46;14.03;;;8.07;;
11151;SDS011;5630;49.342;10.802;2024-01-30T14:13:12;11.27;;;7.10;;
11151;SDS011;5630;49.342;10.802;2024-01-30T14:15:38;11.00;;;7.30;;
11151;SDS011;5630;49.342;10.802;2024-01-30T14:18:04;9.97;;;7.37;;
11151;SDS011;5630;49.342;10.802;2024-01-30T14:20:30;9.87;;;7.23;;
11151;SDS011;5630;49.342;10.802;2024-01-30T14:22:56;10.90;;;7.83;;
11151;SDS011;5630;49.342;10.802;2024-01-30T14:25:22;12.17;;;7.73;;